Ainsworth, Iowa
Current Conditions -  °F | °C
As of 2:55 PM on Friday 19 Dec 2014 (Local Time) from KAWG Reporting Station
Overcast Overcast  
Wind Chill: -5°   Ceiling: 4800
Heat Index: -1°   Visibility: 9mi
Dew Point: -3°   Wind: 8mph
Humidity: 86%   Direction: 160°SSE
Pressure: 30.28"   Gusts: NA
Location:  41.29°N, 91.55°W
Report Text: KAWG 192055Z AUTO 16007KT 9SM SCT029 SCT035 OVC048 M01/M03 A3028 RMK AO2
Loading
Personal Weather Stations






























Interactive Weather Map New forecast layout! Learn more

10-Day Weather Forecast

Advertisements
Track Severe Weather on mobile